PWSweather.com
Personal Weather Stations
Station Observations
ANTHEMNP
Anthem, AZ 85086

Anthem, AZ 85086

Lat: 33.876464, Lon: -112.13861199999997

Elevation: 1930

Station Type: AcuRite 1036

Latest ConditionsUpdated 11:15:01 PM MST Sunday, Aug 20, 2017
Currently Today's Max Today's Min Today's Average
Temperature 85.6°F29.8°C 99.0°F37.2°C 78.3°F25.7°C 88.1°F31.2°C
Dew Point 54.8°F12.7°C 60.7°F15.9°C 46.1°F7.8°C 53.4°F11.9°C
Winds 5.8 mph N9.3 kmh N 10.4 mph NE16.7 kmh NE - 2.0 mph 3.2 kmh
Wind Gusts 8.1 mph13.0 kmh 13.8 mph22.2 kmh - -
Humidity 35% 41% 19% 31%
Pressure 29.91 in1012.9 mb 29.96 in1014.6 mb 29.83 in1010.2 mb -
Hour Temp Dew Point Humidity Winds Wind Gusts Pressure Precip Precip Rate Daily Precip Total
11:15 PM 85.6°F29.8°C 54.8°F12.7°C 35% 5.8 mph N9.3 kmh N 8.1 mph13.0 kmh 29.91 in1012.9 mb - 0.00 in0.0 mm 0.00 in0.0 mm
11:10 PM 85.8°F29.9°C 55.0°F12.8°C 35% 5.8 mph NE9.3 kmh NE 6.9 mph11.1 kmh 29.91 in1012.9 mb - 0.00 in0.0 mm 0.00 in0.0 mm
11:05 PM 86.0°F30.0°C 55.2°F12.9°C 35% 6.9 mph N11.1 kmh N 9.2 mph14.8 kmh 29.91 in1012.9 mb - 0.00 in0.0 mm 0.00 in0.0 mm
11:00 PM 86.4°F30.2°C 55.5°F13.1°C 35% 10.4 mph NE16.7 kmh NE 10.4 mph16.7 kmh 29.91 in1012.9 mb - 0.00 in0.0 mm 0.00 in0.0 mm
10:55 PM 86.4°F30.2°C 55.5°F13.1°C 35% 10.4 mph NE16.7 kmh NE 10.4 mph16.7 kmh 29.90 in1012.5 mb - 0.00 in0.0 mm 0.00 in0.0 mm
10:50 PM 86.5°F30.3°C 55.6°F13.1°C 35% 6.9 mph N11.1 kmh N 8.1 mph13.0 kmh 29.90 in1012.5 mb - 0.00 in0.0 mm 0.00 in0.0 mm
10:45 PM 86.9°F30.5°C 55.9°F13.3°C 35% 8.1 mph N13.0 kmh N 10.4 mph16.7 kmh 29.90 in1012.5 mb - 0.00 in0.0 mm 0.00 in0.0 mm
10:40 PM 86.9°F30.5°C 56.0°F13.3°C 35% 6.9 mph NE11.1 kmh NE 8.1 mph13.0 kmh 29.91 in1012.9 mb - 0.00 in0.0 mm 0.00 in0.0 mm
10:35 PM 87.1°F30.6°C 56.1°F13.4°C 35% 4.6 mph NE7.4 kmh NE 9.2 mph14.8 kmh 29.91 in1012.9 mb - 0.00 in0.0 mm 0.00 in0.0 mm
10:30 PM 87.1°F30.6°C 56.9°F13.8°C 36% 5.8 mph NE9.3 kmh NE 8.1 mph13.0 kmh 29.91 in1012.9 mb - 0.00 in0.0 mm 0.00 in0.0 mm
10:25 PM 87.1°F30.6°C 56.9°F13.8°C 36% 5.8 mph N9.3 kmh N 5.8 mph9.3 kmh 29.91 in1012.9 mb - 0.00 in0.0 mm 0.00 in0.0 mm
10:20 PM 87.4°F30.8°C 57.2°F14.0°C 36% 8.1 mph NE13.0 kmh NE 8.1 mph13.0 kmh 29.90 in1012.5 mb - 0.00 in0.0 mm 0.00 in0.0 mm
10:15 PM 87.4°F30.8°C 56.4°F13.6°C 35% 8.1 mph N13.0 kmh N 10.4 mph16.7 kmh 29.90 in1012.5 mb - 0.00 in0.0 mm 0.00 in0.0 mm
10:10 PM 87.9°F31.1°C 56.8°F13.8°C 35% 8.1 mph NNW13.0 kmh NNW 13.8 mph22.2 kmh 29.90 in1012.5 mb - 0.00 in0.0 mm 0.00 in0.0 mm
10:05 PM 88.2°F31.2°C 56.3°F13.5°C 34% 9.2 mph NNE14.8 kmh NNE 10.4 mph16.7 kmh 29.90 in1012.5 mb - 0.00 in0.0 mm 0.00 in0.0 mm
10:00 PM 88.5°F31.4°C 55.7°F13.2°C 33% 6.9 mph NE11.1 kmh NE 9.2 mph14.8 kmh 29.90 in1012.5 mb - 0.00 in0.0 mm 0.00 in0.0 mm
09:55 PM 88.9°F31.6°C 55.2°F12.9°C 32% 6.9 mph NE11.1 kmh NE 10.4 mph16.7 kmh 29.89 in1012.2 mb - 0.00 in0.0 mm 0.00 in0.0 mm
09:50 PM 89.4°F31.9°C 53.9°F12.2°C 30% 6.9 mph N11.1 kmh N 6.9 mph11.1 kmh 29.89 in1012.2 mb - 0.00 in0.0 mm 0.00 in0.0 mm
09:45 PM 89.2°F31.8°C 53.7°F12.1°C 30% 5.8 mph N9.3 kmh N 8.1 mph13.0 kmh 29.89 in1012.2 mb - 0.00 in0.0 mm 0.00 in0.0 mm
09:40 PM 89.2°F31.8°C 53.7°F12.1°C 30% 8.1 mph NE13.0 kmh NE 10.4 mph16.7 kmh 29.89 in1012.2 mb - 0.00 in0.0 mm 0.00 in0.0 mm
09:35 PM 89.2°F31.8°C 53.7°F12.1°C 30% 6.9 mph NNE11.1 kmh NNE 6.9 mph11.1 kmh 29.89 in1012.2 mb - 0.00 in0.0 mm 0.00 in0.0 mm
09:30 PM 89.2°F31.8°C 53.7°F12.1°C 30% 6.9 mph NNE11.1 kmh NNE 8.1 mph13.0 kmh 29.89 in1012.2 mb - 0.00 in0.0 mm 0.00 in0.0 mm
09:25 PM 89.2°F31.8°C 53.7°F12.1°C 30% 8.1 mph N13.0 kmh N 10.4 mph16.7 kmh 29.89 in1012.2 mb - 0.00 in0.0 mm 0.00 in0.0 mm
09:20 PM 89.4°F31.9°C 53.9°F12.2°C 30% 6.9 mph N11.1 kmh N 9.2 mph14.8 kmh 29.89 in1012.2 mb - 0.00 in0.0 mm 0.00 in0.0 mm
09:15 PM 89.4°F31.9°C 53.9°F12.2°C 30% 5.8 mph N9.3 kmh N 5.8 mph9.3 kmh 29.88 in1011.9 mb - 0.00 in0.0 mm 0.00 in0.0 mm
09:10 PM 89.4°F31.9°C 53.0°F11.7°C 29% 5.8 mph N9.3 kmh N 5.8 mph9.3 kmh 29.88 in1011.9 mb - 0.00 in0.0 mm 0.00 in0.0 mm
09:05 PM 89.4°F31.9°C 53.0°F11.7°C 29% 5.8 mph N9.3 kmh N 5.8 mph9.3 kmh 29.88 in1011.9 mb - 0.00 in0.0 mm 0.00 in0.0 mm
09:00 PM 89.6°F32.0°C 53.1°F11.7°C 29% 5.8 mph NNE9.3 kmh NNE 5.8 mph9.3 kmh 29.88 in1011.9 mb - 0.00 in0.0 mm 0.00 in0.0 mm
08:55 PM 89.6°F32.0°C 53.1°F11.7°C 29% 5.8 mph NE9.3 kmh NE 5.8 mph9.3 kmh 29.88 in1011.9 mb - 0.00 in0.0 mm 0.00 in0.0 mm
08:50 PM 89.8°F32.1°C 53.3°F11.8°C 29% 4.6 mph NNE7.4 kmh NNE 5.8 mph9.3 kmh 29.88 in1011.9 mb - 0.00 in0.0 mm 0.00 in0.0 mm
08:45 PM 89.8°F32.1°C 53.3°F11.8°C 29% 3.5 mph N5.6 kmh N 5.8 mph9.3 kmh 29.88 in1011.9 mb - 0.00 in0.0 mm 0.00 in0.0 mm
08:40 PM 90.0°F32.2°C 53.5°F11.9°C 29% 6.9 mph NNE11.1 kmh NNE 5.8 mph9.3 kmh 29.88 in1011.9 mb - 0.00 in0.0 mm 0.00 in0.0 mm
08:35 PM 90.0°F32.2°C 53.5°F11.9°C 29% 6.9 mph N11.1 kmh N 9.2 mph14.8 kmh 29.88 in1011.9 mb - 0.00 in0.0 mm 0.00 in0.0 mm
08:30 PM 90.1°F32.3°C 53.6°F12.0°C 29% 5.8 mph NE9.3 kmh NE 9.2 mph14.8 kmh 29.87 in1011.5 mb - 0.00 in0.0 mm 0.00 in0.0 mm
08:25 PM 90.1°F32.3°C 53.6°F12.0°C 29% 6.9 mph N11.1 kmh N 9.2 mph14.8 kmh 29.87 in1011.5 mb - 0.00 in0.0 mm 0.00 in0.0 mm
08:20 PM 90.1°F32.3°C 53.6°F12.0°C 29% 6.9 mph NNE11.1 kmh NNE 8.1 mph13.0 kmh 29.87 in1011.5 mb - 0.00 in0.0 mm 0.00 in0.0 mm
08:15 PM 90.3°F32.4°C 53.7°F12.1°C 29% 8.1 mph N13.0 kmh N 10.4 mph16.7 kmh 29.86 in1011.2 mb - 0.00 in0.0 mm 0.00 in0.0 mm
08:10 PM 90.3°F32.4°C 53.7°F12.1°C 29% 5.8 mph N9.3 kmh N 6.9 mph11.1 kmh 29.86 in1011.2 mb - 0.00 in0.0 mm 0.00 in0.0 mm
08:05 PM 90.5°F32.5°C 53.9°F12.2°C 29% 4.6 mph E7.4 kmh E 6.9 mph11.1 kmh 29.86 in1011.2 mb - 0.00 in0.0 mm 0.00 in0.0 mm
08:00 PM 90.5°F32.5°C 53.9°F12.2°C 29% 5.8 mph NNW9.3 kmh NNW 8.1 mph13.0 kmh 29.86 in1011.2 mb - 0.00 in0.0 mm 0.00 in0.0 mm
07:55 PM 90.7°F32.6°C 54.1°F12.3°C 29% 6.9 mph NNE11.1 kmh NNE 10.4 mph16.7 kmh 29.85 in1010.8 mb - 0.00 in0.0 mm 0.00 in0.0 mm
07:50 PM 90.7°F32.6°C 51.1°F10.6°C 26% 4.6 mph N7.4 kmh N 5.8 mph9.3 kmh 29.85 in1010.8 mb - 0.00 in0.0 mm 0.00 in0.0 mm
07:45 PM 91.1°F32.8°C 47.0°F8.3°C 22% Calm Calm 3.5 mph5.6 kmh 29.85 in1010.8 mb - 0.00 in0.0 mm 0.00 in0.0 mm
07:40 PM 91.6°F33.1°C 47.4°F8.6°C 22% Calm Calm -- 29.84 in1010.5 mb - 0.00 in0.0 mm 0.00 in0.0 mm
07:35 PM 91.8°F33.2°C 47.5°F8.6°C 22% Calm Calm -- 29.84 in1010.5 mb - 0.00 in0.0 mm 0.00 in0.0 mm
07:30 PM 92.1°F33.4°C 46.6°F8.1°C 21% Calm Calm -- 29.84 in1010.5 mb - 0.00 in0.0 mm 0.00 in0.0 mm
07:25 PM 92.3°F33.5°C 46.7°F8.2°C 21% Calm Calm -- 29.84 in1010.5 mb - 0.00 in0.0 mm 0.00 in0.0 mm
07:20 PM 92.5°F33.6°C 46.9°F8.3°C 21% Calm Calm -- 29.84 in1010.5 mb - 0.00 in0.0 mm 0.00 in0.0 mm
07:15 PM 92.7°F33.7°C 47.0°F8.3°C 21% 1.2 mph S1.9 kmh S 1.2 mph1.9 kmh 29.84 in1010.5 mb - 0.00 in0.0 mm 0.00 in0.0 mm
07:10 PM 92.9°F33.8°C 47.2°F8.4°C 21% Calm Calm -- 29.84 in1010.5 mb - 0.00 in0.0 mm 0.00 in0.0 mm
07:05 PM 93.0°F33.9°C 47.3°F8.5°C 21% Calm Calm 2.3 mph3.7 kmh 29.84 in1010.5 mb - 0.00 in0.0 mm 0.00 in0.0 mm
07:00 PM 93.2°F34.0°C 46.2°F7.9°C 20% 2.3 mph S3.7 kmh S 2.3 mph3.7 kmh 29.84 in1010.5 mb - 0.00 in0.0 mm 0.00 in0.0 mm
06:55 PM 93.4°F34.1°C 46.3°F7.9°C 20% 2.3 mph SSE3.7 kmh SSE 2.3 mph3.7 kmh 29.84 in1010.5 mb - 0.00 in0.0 mm 0.00 in0.0 mm
06:50 PM 93.6°F34.2°C 46.5°F8.1°C 20% 3.5 mph S5.6 kmh S 4.6 mph7.4 kmh 29.84 in1010.5 mb - 0.00 in0.0 mm 0.00 in0.0 mm
06:45 PM 93.9°F34.4°C 46.7°F8.2°C 20% 2.3 mph S3.7 kmh S 2.3 mph3.7 kmh 29.84 in1010.5 mb - 0.00 in0.0 mm 0.00 in0.0 mm
06:40 PM 93.9°F34.4°C 46.7°F8.2°C 20% 1.2 mph SW1.9 kmh SW 2.3 mph3.7 kmh 29.83 in1010.2 mb - 0.00 in0.0 mm 0.00 in0.0 mm
06:35 PM 94.1°F34.5°C 46.9°F8.3°C 20% 3.5 mph S5.6 kmh S 3.5 mph5.6 kmh 29.83 in1010.2 mb - 0.00 in0.0 mm 0.00 in0.0 mm
06:30 PM 94.3°F34.6°C 47.1°F8.4°C 20% 2.3 mph SSE3.7 kmh SSE 3.5 mph5.6 kmh 29.83 in1010.2 mb - 0.00 in0.0 mm 0.00 in0.0 mm
06:25 PM 94.5°F34.7°C 47.2°F8.4°C 20% 2.3 mph S3.7 kmh S 4.6 mph7.4 kmh 29.83 in1010.2 mb - 0.00 in0.0 mm 0.00 in0.0 mm
06:20 PM 94.8°F34.9°C 46.1°F7.8°C 19% 2.3 mph SSW3.7 kmh SSW 2.3 mph3.7 kmh 29.83 in1010.2 mb - 0.00 in0.0 mm 0.00 in0.0 mm
06:15 PM 94.8°F34.9°C 46.1°F7.8°C 19% 3.5 mph SSW5.6 kmh SSW 4.6 mph7.4 kmh 29.84 in1010.5 mb - 0.00 in0.0 mm 0.00 in0.0 mm
06:10 PM 95.0°F35.0°C 46.3°F7.9°C 19% 4.6 mph SW7.4 kmh SW 5.8 mph9.3 kmh 29.84 in1010.5 mb - 0.00 in0.0 mm 0.00 in0.0 mm
06:05 PM 95.4°F35.2°C 46.6°F8.1°C 19% 3.5 mph S5.6 kmh S 5.8 mph9.3 kmh 29.83 in1010.2 mb - 0.00 in0.0 mm 0.00 in0.0 mm
06:00 PM 95.5°F35.3°C 46.7°F8.2°C 19% 2.3 mph S3.7 kmh S 3.5 mph5.6 kmh 29.83 in1010.2 mb - 0.00 in0.0 mm 0.00 in0.0 mm
05:55 PM 95.5°F35.3°C 48.0°F8.9°C 20% 4.6 mph S7.4 kmh S 4.6 mph7.4 kmh 29.83 in1010.2 mb - 0.00 in0.0 mm 0.00 in0.0 mm
05:50 PM 95.7°F35.4°C 48.2°F9.0°C 20% 4.6 mph SSW7.4 kmh SSW 5.8 mph9.3 kmh 29.83 in1010.2 mb - 0.00 in0.0 mm 0.00 in0.0 mm
05:45 PM 96.1°F35.6°C 48.5°F9.2°C 20% 4.6 mph SW7.4 kmh SW 5.8 mph9.3 kmh 29.83 in1010.2 mb - 0.00 in0.0 mm 0.00 in0.0 mm
05:40 PM 96.3°F35.7°C 48.7°F9.3°C 20% 2.3 mph S3.7 kmh S 4.6 mph7.4 kmh 29.83 in1010.2 mb - 0.00 in0.0 mm 0.00 in0.0 mm
05:35 PM 95.5°F35.3°C 48.0°F8.9°C 20% Calm Calm -- 29.83 in1010.2 mb - 0.00 in0.0 mm 0.00 in0.0 mm
05:30 PM 96.2°F35.7°C 48.7°F9.3°C 20% 3.5 mph SSW5.6 kmh SSW 3.5 mph5.6 kmh 29.83 in1010.2 mb - 0.00 in0.0 mm 0.00 in0.0 mm
05:25 PM 96.3°F35.7°C 48.7°F9.3°C 20% 2.3 mph WSW3.7 kmh WSW 2.3 mph3.7 kmh 29.83 in1010.2 mb - 0.00 in0.0 mm 0.00 in0.0 mm
05:20 PM 95.9°F35.5°C 48.4°F9.1°C 20% 4.6 mph S7.4 kmh S 5.8 mph9.3 kmh 29.83 in1010.2 mb - 0.00 in0.0 mm 0.00 in0.0 mm
05:15 PM 96.3°F35.7°C 48.7°F9.3°C 20% 4.6 mph SW7.4 kmh SW 6.9 mph11.1 kmh 29.84 in1010.5 mb - 0.00 in0.0 mm 0.00 in0.0 mm
05:10 PM 96.4°F35.8°C 50.1°F10.1°C 21% 5.8 mph SW9.3 kmh SW 6.9 mph11.1 kmh 29.84 in1010.5 mb - 0.00 in0.0 mm 0.00 in0.0 mm
05:05 PM 96.4°F35.8°C 50.1°F10.1°C 21% 5.8 mph S9.3 kmh S 6.9 mph11.1 kmh 29.83 in1010.2 mb - 0.00 in0.0 mm 0.00 in0.0 mm
05:00 PM 96.4°F35.8°C 50.1°F10.1°C 21% 5.8 mph S9.3 kmh S 8.1 mph13.0 kmh 29.83 in1010.2 mb - 0.00 in0.0 mm 0.00 in0.0 mm
04:55 PM 96.3°F35.7°C 50.0°F10.0°C 21% 4.6 mph WSW7.4 kmh WSW 5.8 mph9.3 kmh 29.84 in1010.5 mb - 0.00 in0.0 mm 0.00 in0.0 mm
04:50 PM 96.6°F35.9°C 50.3°F10.2°C 21% 2.3 mph SSW3.7 kmh SSW 5.8 mph9.3 kmh 29.84 in1010.5 mb - 0.00 in0.0 mm 0.00 in0.0 mm
04:45 PM 97.2°F36.2°C 49.4°F9.7°C 20% 4.6 mph S7.4 kmh S 5.8 mph9.3 kmh 29.84 in1010.5 mb - 0.00 in0.0 mm 0.00 in0.0 mm
04:40 PM 98.1°F36.7°C 50.2°F10.1°C 20% 4.6 mph SSW7.4 kmh SSW 5.8 mph9.3 kmh 29.84 in1010.5 mb - 0.00 in0.0 mm 0.00 in0.0 mm
04:35 PM 97.5°F36.4°C 49.7°F9.8°C 20% 2.3 mph S3.7 kmh S 2.3 mph3.7 kmh 29.84 in1010.5 mb - 0.00 in0.0 mm 0.00 in0.0 mm
04:30 PM 97.4°F36.3°C 49.6°F9.8°C 20% 2.3 mph S3.7 kmh S 3.5 mph5.6 kmh 29.84 in1010.5 mb - 0.00 in0.0 mm 0.00 in0.0 mm
04:25 PM 97.3°F36.3°C 49.5°F9.7°C 20% 3.5 mph SW5.6 kmh SW 4.6 mph7.4 kmh 29.84 in1010.5 mb - 0.00 in0.0 mm 0.00 in0.0 mm
04:20 PM 98.1°F36.7°C 50.2°F10.1°C 20% 5.8 mph S9.3 kmh S 4.6 mph7.4 kmh 29.84 in1010.5 mb - 0.00 in0.0 mm 0.00 in0.0 mm
04:15 PM 97.8°F36.6°C 49.9°F9.9°C 20% 3.5 mph SSW5.6 kmh SSW 3.5 mph5.6 kmh 29.84 in1010.5 mb - 0.00 in0.0 mm 0.00 in0.0 mm
04:10 PM 97.3°F36.3°C 49.5°F9.7°C 20% 2.3 mph WNW3.7 kmh WNW 3.5 mph5.6 kmh 29.84 in1010.5 mb - 0.00 in0.0 mm 0.00 in0.0 mm
04:05 PM 98.7°F37.1°C 50.7°F10.4°C 20% 2.3 mph SW3.7 kmh SW 3.5 mph5.6 kmh 29.85 in1010.8 mb - 0.00 in0.0 mm 0.00 in0.0 mm
04:00 PM 97.9°F36.6°C 51.3°F10.7°C 21% 3.5 mph WNW5.6 kmh WNW 4.6 mph7.4 kmh 29.85 in1010.8 mb - 0.00 in0.0 mm 0.00 in0.0 mm
03:55 PM 97.1°F36.2°C 53.1°F11.7°C 23% 2.3 mph WSW3.7 kmh WSW 3.5 mph5.6 kmh 29.85 in1010.8 mb - 0.00 in0.0 mm 0.00 in0.0 mm
03:50 PM 98.6°F37.0°C 53.2°F11.8°C 22% 2.3 mph WSW3.7 kmh WSW 2.3 mph3.7 kmh 29.85 in1010.8 mb - 0.00 in0.0 mm 0.00 in0.0 mm
03:45 PM 97.7°F36.5°C 54.8°F12.7°C 24% Calm Calm -- 29.85 in1010.8 mb - 0.00 in0.0 mm 0.00 in0.0 mm
03:40 PM 98.8°F37.1°C 54.5°F12.5°C 23% Calm Calm 2.3 mph3.7 kmh 29.86 in1011.2 mb - 0.00 in0.0 mm 0.00 in0.0 mm
03:35 PM 97.9°F36.6°C 53.8°F12.1°C 23% 2.3 mph SE3.7 kmh SE 1.2 mph1.9 kmh 29.86 in1011.2 mb - 0.00 in0.0 mm 0.00 in0.0 mm
03:30 PM 99.0°F37.2°C 54.8°F12.7°C 23% 2.3 mph SE3.7 kmh SE 2.3 mph3.7 kmh 29.86 in1011.2 mb - 0.00 in0.0 mm 0.00 in0.0 mm
03:25 PM 98.1°F36.7°C 54.0°F12.2°C 23% 4.6 mph S7.4 kmh S 5.8 mph9.3 kmh 29.86 in1011.2 mb - 0.00 in0.0 mm 0.00 in0.0 mm
03:20 PM 97.4°F36.3°C 52.2°F11.2°C 22% 2.3 mph SE3.7 kmh SE 3.5 mph5.6 kmh 29.86 in1011.2 mb - 0.00 in0.0 mm 0.00 in0.0 mm
03:15 PM 97.5°F36.4°C 53.5°F11.9°C 23% 2.3 mph SSE3.7 kmh SSE 5.8 mph9.3 kmh 29.86 in1011.2 mb - 0.00 in0.0 mm 0.00 in0.0 mm
03:10 PM 97.6°F36.4°C 54.7°F12.6°C 24% 3.5 mph S5.6 kmh S 5.8 mph9.3 kmh 29.86 in1011.2 mb - 0.00 in0.0 mm 0.00 in0.0 mm
03:05 PM 96.5°F35.8°C 53.8°F12.1°C 24% 3.5 mph S5.6 kmh S 5.8 mph9.3 kmh 29.86 in1011.2 mb - 0.00 in0.0 mm 0.00 in0.0 mm
03:00 PM 95.3°F35.2°C 53.9°F12.2°C 25% 1.2 mph S1.9 kmh S 3.5 mph5.6 kmh 29.86 in1011.2 mb - 0.00 in0.0 mm 0.00 in0.0 mm
02:55 PM 95.4°F35.2°C 55.1°F12.8°C 26% 1.2 mph SW1.9 kmh SW 1.2 mph1.9 kmh 29.87 in1011.5 mb - 0.00 in0.0 mm 0.00 in0.0 mm
02:50 PM 95.1°F35.1°C 54.8°F12.7°C 26% Calm Calm -- 29.87 in1011.5 mb - 0.00 in0.0 mm 0.00 in0.0 mm
02:45 PM 95.7°F35.4°C 54.3°F12.4°C 25% Calm Calm -- 29.87 in1011.5 mb - 0.00 in0.0 mm 0.00 in0.0 mm
02:40 PM 94.7°F34.8°C 54.5°F12.5°C 26% 2.3 mph S3.7 kmh S 3.5 mph5.6 kmh 29.88 in1011.9 mb - 0.00 in0.0 mm 0.00 in0.0 mm
02:35 PM 95.2°F35.1°C 54.9°F12.7°C 26% 2.3 mph S3.7 kmh S 2.3 mph3.7 kmh 29.88 in1011.9 mb - 0.00 in0.0 mm 0.00 in0.0 mm
02:30 PM 94.8°F34.9°C 54.6°F12.6°C 26% 3.5 mph SW5.6 kmh SW 3.5 mph5.6 kmh 29.89 in1012.2 mb - 0.00 in0.0 mm 0.00 in0.0 mm
02:25 PM 94.0°F34.4°C 55.0°F12.8°C 27% 2.3 mph SE3.7 kmh SE 1.2 mph1.9 kmh 29.89 in1012.2 mb - 0.00 in0.0 mm 0.00 in0.0 mm
02:20 PM 94.4°F34.7°C 55.3°F12.9°C 27% 2.3 mph N3.7 kmh N 3.5 mph5.6 kmh 29.89 in1012.2 mb - 0.00 in0.0 mm 0.00 in0.0 mm
02:15 PM 94.1°F34.5°C 55.0°F12.8°C 27% 1.2 mph E1.9 kmh E 3.5 mph5.6 kmh 29.89 in1012.2 mb - 0.00 in0.0 mm 0.00 in0.0 mm
02:10 PM 94.8°F34.9°C 54.6°F12.6°C 26% 2.3 mph S3.7 kmh S 3.5 mph5.6 kmh 29.89 in1012.2 mb - 0.00 in0.0 mm 0.00 in0.0 mm
02:05 PM 97.0°F36.1°C 55.3°F12.9°C 25% 3.5 mph S5.6 kmh S 4.6 mph7.4 kmh 29.90 in1012.5 mb - 0.00 in0.0 mm 0.00 in0.0 mm
02:00 PM 96.9°F36.1°C 56.4°F13.6°C 26% 3.5 mph S5.6 kmh S 3.5 mph5.6 kmh 29.90 in1012.5 mb - 0.00 in0.0 mm 0.00 in0.0 mm
01:55 PM 95.9°F35.5°C 56.5°F13.6°C 27% Calm Calm 3.5 mph5.6 kmh 29.91 in1012.9 mb - 0.00 in0.0 mm 0.00 in0.0 mm
01:50 PM 95.1°F35.1°C 55.9°F13.3°C 27% 1.2 mph E1.9 kmh E 2.3 mph3.7 kmh 29.91 in1012.9 mb - 0.00 in0.0 mm 0.00 in0.0 mm
01:45 PM 93.0°F33.9°C 55.1°F12.8°C 28% 1.2 mph W1.9 kmh W 4.6 mph7.4 kmh 29.91 in1012.9 mb - 0.00 in0.0 mm 0.00 in0.0 mm
01:40 PM 93.3°F34.1°C 55.3°F12.9°C 28% 1.2 mph S1.9 kmh S 3.5 mph5.6 kmh 29.91 in1012.9 mb - 0.00 in0.0 mm 0.00 in0.0 mm
01:35 PM 92.4°F33.6°C 55.6°F13.1°C 29% 1.2 mph S1.9 kmh S 3.5 mph5.6 kmh 29.91 in1012.9 mb - 0.00 in0.0 mm 0.00 in0.0 mm
01:30 PM 92.7°F33.7°C 55.8°F13.2°C 29% 1.2 mph SW1.9 kmh SW 2.3 mph3.7 kmh 29.92 in1013.2 mb - 0.00 in0.0 mm 0.00 in0.0 mm
01:25 PM 91.7°F33.2°C 55.9°F13.3°C 30% Calm Calm -- 29.92 in1013.2 mb - 0.00 in0.0 mm 0.00 in0.0 mm
01:20 PM 91.9°F33.3°C 55.1°F12.8°C 29% 2.3 mph E3.7 kmh E 2.3 mph3.7 kmh 29.92 in1013.2 mb - 0.00 in0.0 mm 0.00 in0.0 mm
01:15 PM 91.8°F33.2°C 55.1°F12.8°C 29% 1.2 mph NE1.9 kmh NE 2.3 mph3.7 kmh 29.92 in1013.2 mb - 0.00 in0.0 mm 0.00 in0.0 mm
01:10 PM 90.9°F32.7°C 56.1°F13.4°C 31% Calm Calm -- 29.92 in1013.2 mb - 0.00 in0.0 mm 0.00 in0.0 mm
01:05 PM 90.5°F32.5°C 56.6°F13.7°C 32% Calm Calm -- 29.92 in1013.2 mb - 0.00 in0.0 mm 0.00 in0.0 mm
01:00 PM 92.1°F33.4°C 57.1°F13.9°C 31% Calm Calm 1.2 mph1.9 kmh 29.92 in1013.2 mb - 0.00 in0.0 mm 0.00 in0.0 mm
12:55 PM 90.7°F32.6°C 56.8°F13.8°C 32% 2.3 mph SE3.7 kmh SE 3.5 mph5.6 kmh 29.93 in1013.5 mb - 0.00 in0.0 mm 0.00 in0.0 mm
12:50 PM 90.4°F32.4°C 57.3°F14.1°C 33% Calm Calm -- 29.93 in1013.5 mb - 0.00 in0.0 mm 0.00 in0.0 mm
12:45 PM 90.7°F32.6°C 57.7°F14.3°C 33% Calm Calm -- 29.93 in1013.5 mb - 0.00 in0.0 mm 0.00 in0.0 mm
12:40 PM 90.5°F32.5°C 57.4°F14.1°C 33% Calm Calm -- 29.93 in1013.5 mb - 0.00 in0.0 mm 0.00 in0.0 mm
12:35 PM 90.9°F32.7°C 58.7°F14.8°C 34% Calm Calm -- 29.93 in1013.5 mb - 0.00 in0.0 mm 0.00 in0.0 mm
12:30 PM 90.5°F32.5°C 56.6°F13.7°C 32% 1.2 mph S1.9 kmh S 1.2 mph1.9 kmh 29.93 in1013.5 mb - 0.00 in0.0 mm 0.00 in0.0 mm
12:25 PM 90.4°F32.4°C 55.7°F13.2°C 31% 2.3 mph SSE3.7 kmh SSE 3.5 mph5.6 kmh 29.93 in1013.5 mb - 0.00 in0.0 mm 0.00 in0.0 mm
12:20 PM 89.3°F31.8°C 55.6°F13.1°C 32% Calm Calm -- 29.93 in1013.5 mb - 0.00 in0.0 mm 0.00 in0.0 mm
12:15 PM 89.5°F31.9°C 55.7°F13.2°C 32% 2.3 mph SE3.7 kmh SE 3.5 mph5.6 kmh 29.93 in1013.5 mb - 0.00 in0.0 mm 0.00 in0.0 mm
12:10 PM 88.9°F31.6°C 56.9°F13.8°C 34% Calm Calm -- 29.93 in1013.5 mb - 0.00 in0.0 mm 0.00 in0.0 mm
12:05 PM 88.7°F31.5°C 56.7°F13.7°C 34% 1.2 mph NNW1.9 kmh NNW 1.2 mph1.9 kmh 29.94 in1013.9 mb - 0.00 in0.0 mm 0.00 in0.0 mm
12:00 PM 88.2°F31.2°C 57.9°F14.4°C 36% Calm Calm 1.2 mph1.9 kmh 29.94 in1013.9 mb - 0.00 in0.0 mm 0.00 in0.0 mm
11:55 AM 88.2°F31.2°C 57.9°F14.4°C 36% 1.2 mph S1.9 kmh S 1.2 mph1.9 kmh 29.94 in1013.9 mb - 0.00 in0.0 mm 0.00 in0.0 mm
11:50 AM 87.6°F30.9°C 58.8°F14.9°C 38% 2.3 mph SE3.7 kmh SE 3.5 mph5.6 kmh 29.94 in1013.9 mb - 0.00 in0.0 mm 0.00 in0.0 mm
11:45 AM 87.8°F31.0°C 59.1°F15.1°C 38% 3.5 mph SE5.6 kmh SE 4.6 mph7.4 kmh 29.94 in1013.9 mb - 0.00 in0.0 mm 0.00 in0.0 mm
11:40 AM 88.2°F31.2°C 58.6°F14.8°C 37% 3.5 mph SE5.6 kmh SE 5.8 mph9.3 kmh 29.95 in1014.2 mb - 0.00 in0.0 mm 0.00 in0.0 mm
11:35 AM 88.2°F31.2°C 58.7°F14.8°C 37% 4.6 mph SSE7.4 kmh SSE 4.6 mph7.4 kmh 29.95 in1014.2 mb - 0.00 in0.0 mm 0.00 in0.0 mm
11:30 AM 88.5°F31.4°C 58.9°F14.9°C 37% 3.5 mph S5.6 kmh S 4.6 mph7.4 kmh 29.95 in1014.2 mb - 0.00 in0.0 mm 0.00 in0.0 mm
11:25 AM 88.7°F31.5°C 58.3°F14.6°C 36% 1.2 mph SE1.9 kmh SE 2.3 mph3.7 kmh 29.95 in1014.2 mb - 0.00 in0.0 mm 0.00 in0.0 mm
11:20 AM 88.2°F31.2°C 59.4°F15.2°C 38% Calm Calm -- 29.95 in1014.2 mb - 0.00 in0.0 mm 0.00 in0.0 mm
11:15 AM 88.3°F31.3°C 59.5°F15.3°C 38% 1.2 mph S1.9 kmh S 1.2 mph1.9 kmh 29.95 in1014.2 mb - 0.00 in0.0 mm 0.00 in0.0 mm
11:10 AM 87.8°F31.0°C 59.8°F15.4°C 39% Calm Calm 1.2 mph1.9 kmh 29.95 in1014.2 mb - 0.00 in0.0 mm 0.00 in0.0 mm
11:05 AM 87.5°F30.8°C 58.7°F14.8°C 38% Calm Calm -- 29.95 in1014.2 mb - 0.00 in0.0 mm 0.00 in0.0 mm
11:00 AM 87.3°F30.7°C 60.7°F15.9°C 41% 2.3 mph S3.7 kmh S 2.3 mph3.7 kmh 29.95 in1014.2 mb - 0.00 in0.0 mm 0.00 in0.0 mm
10:55 AM 86.7°F30.4°C 59.5°F15.3°C 40% 2.3 mph SSE3.7 kmh SSE 2.3 mph3.7 kmh 29.95 in1014.2 mb - 0.00 in0.0 mm 0.00 in0.0 mm
10:50 AM 86.2°F30.1°C 59.0°F15.0°C 40% Calm Calm -- 29.95 in1014.2 mb - 0.00 in0.0 mm 0.00 in0.0 mm
10:45 AM 86.1°F30.1°C 59.6°F15.3°C 41% Calm Calm -- 29.95 in1014.2 mb - 0.00 in0.0 mm 0.00 in0.0 mm
10:40 AM 86.2°F30.1°C 58.3°F14.6°C 39% Calm Calm 2.3 mph3.7 kmh 29.96 in1014.6 mb - 0.00 in0.0 mm 0.00 in0.0 mm
10:35 AM 86.0°F30.0°C 57.4°F14.1°C 38% Calm Calm -- 29.96 in1014.6 mb - 0.00 in0.0 mm 0.00 in0.0 mm
10:30 AM 85.5°F29.7°C 58.4°F14.7°C 40% 1.2 mph SW1.9 kmh SW 1.2 mph1.9 kmh 29.96 in1014.6 mb - 0.00 in0.0 mm 0.00 in0.0 mm
10:25 AM 85.6°F29.8°C 57.8°F14.3°C 39% 2.3 mph S3.7 kmh S 2.3 mph3.7 kmh 29.96 in1014.6 mb - 0.00 in0.0 mm 0.00 in0.0 mm
10:20 AM 85.6°F29.8°C 57.8°F14.3°C 39% 2.3 mph SSE3.7 kmh SSE 2.3 mph3.7 kmh 29.96 in1014.6 mb - 0.00 in0.0 mm 0.00 in0.0 mm
10:15 AM 86.3°F30.2°C 56.9°F13.8°C 37% 1.2 mph SW1.9 kmh SW 2.3 mph3.7 kmh 29.95 in1014.2 mb - 0.00 in0.0 mm 0.00 in0.0 mm
10:10 AM 86.2°F30.1°C 57.6°F14.2°C 38% 2.3 mph S3.7 kmh S 2.3 mph3.7 kmh 29.95 in1014.2 mb - 0.00 in0.0 mm 0.00 in0.0 mm
10:05 AM 86.9°F30.5°C 57.5°F14.2°C 37% 2.3 mph SSE3.7 kmh SSE 3.5 mph5.6 kmh 29.96 in1014.6 mb - 0.00 in0.0 mm 0.00 in0.0 mm
10:00 AM 87.4°F30.8°C 56.4°F13.6°C 35% 2.3 mph S3.7 kmh S 3.5 mph5.6 kmh 29.96 in1014.6 mb - 0.00 in0.0 mm 0.00 in0.0 mm
09:55 AM 87.4°F30.8°C 56.4°F13.6°C 35% 3.5 mph SW5.6 kmh SW 2.3 mph3.7 kmh 29.96 in1014.6 mb - 0.00 in0.0 mm 0.00 in0.0 mm
09:50 AM 87.3°F30.7°C 56.3°F13.5°C 35% 3.5 mph S5.6 kmh S 3.5 mph5.6 kmh 29.95 in1014.2 mb - 0.00 in0.0 mm 0.00 in0.0 mm
09:45 AM 88.0°F31.1°C 56.9°F13.8°C 35% 2.3 mph S3.7 kmh S 2.3 mph3.7 kmh 29.95 in1014.2 mb - 0.00 in0.0 mm 0.00 in0.0 mm
09:40 AM 87.6°F30.9°C 56.6°F13.7°C 35% Calm Calm 3.5 mph5.6 kmh 29.95 in1014.2 mb - 0.00 in0.0 mm 0.00 in0.0 mm
09:35 AM 87.4°F30.8°C 56.4°F13.6°C 35% 2.3 mph SSW3.7 kmh SSW 2.3 mph3.7 kmh 29.95 in1014.2 mb - 0.00 in0.0 mm 0.00 in0.0 mm
09:30 AM 87.8°F31.0°C 56.7°F13.7°C 35% Calm Calm 1.2 mph1.9 kmh 29.95 in1014.2 mb - 0.00 in0.0 mm 0.00 in0.0 mm
09:25 AM 87.8°F31.0°C 56.7°F13.7°C 35% 2.3 mph S3.7 kmh S 3.5 mph5.6 kmh 29.95 in1014.2 mb - 0.00 in0.0 mm 0.00 in0.0 mm
09:20 AM 88.0°F31.1°C 56.9°F13.8°C 35% Calm Calm 1.2 mph1.9 kmh 29.95 in1014.2 mb - 0.00 in0.0 mm 0.00 in0.0 mm
09:15 AM 88.0°F31.1°C 56.9°F13.8°C 35% 2.3 mph S3.7 kmh S 3.5 mph5.6 kmh 29.95 in1014.2 mb - 0.00 in0.0 mm 0.00 in0.0 mm
09:10 AM 88.2°F31.2°C 56.3°F13.5°C 34% 3.5 mph SSW5.6 kmh SSW 4.6 mph7.4 kmh 29.95 in1014.2 mb - 0.00 in0.0 mm 0.00 in0.0 mm
09:05 AM 88.3°F31.3°C 55.6°F13.1°C 33% 2.3 mph SSW3.7 kmh SSW 3.5 mph5.6 kmh 29.94 in1013.9 mb - 0.00 in0.0 mm 0.00 in0.0 mm
09:00 AM 89.4°F31.9°C 55.6°F13.1°C 32% Calm Calm -- 29.94 in1013.9 mb - 0.00 in0.0 mm 0.00 in0.0 mm
08:55 AM 90.1°F32.3°C 55.4°F13.0°C 31% Calm Calm -- 29.94 in1013.9 mb - 0.00 in0.0 mm 0.00 in0.0 mm
08:50 AM 88.2°F31.2°C 54.6°F12.6°C 32% Calm Calm -- 29.94 in1013.9 mb - 0.00 in0.0 mm 0.00 in0.0 mm
08:45 AM 87.7°F30.9°C 54.1°F12.3°C 32% Calm Calm -- 29.94 in1013.9 mb - 0.00 in0.0 mm 0.00 in0.0 mm
08:40 AM 87.3°F30.7°C 53.8°F12.1°C 32% Calm Calm -- 29.94 in1013.9 mb - 0.00 in0.0 mm 0.00 in0.0 mm
08:35 AM 86.9°F30.5°C 54.3°F12.4°C 33% Calm Calm -- 29.94 in1013.9 mb - 0.00 in0.0 mm 0.00 in0.0 mm
08:30 AM 87.1°F30.6°C 54.5°F12.5°C 33% Calm Calm -- 29.94 in1013.9 mb - 0.00 in0.0 mm 0.00 in0.0 mm
08:25 AM 86.4°F30.2°C 54.7°F12.6°C 34% Calm Calm -- 29.94 in1013.9 mb - 0.00 in0.0 mm 0.00 in0.0 mm
08:20 AM 86.8°F30.4°C 55.8°F13.2°C 35% Calm Calm -- 29.94 in1013.9 mb - 0.00 in0.0 mm 0.00 in0.0 mm
08:15 AM 86.9°F30.5°C 56.0°F13.3°C 35% Calm Calm -- 29.93 in1013.5 mb - 0.00 in0.0 mm 0.00 in0.0 mm
08:10 AM 87.4°F30.8°C 55.6°F13.1°C 34% Calm Calm -- 29.93 in1013.5 mb - 0.00 in0.0 mm 0.00 in0.0 mm
08:05 AM 88.2°F31.2°C 55.5°F13.1°C 33% Calm Calm -- 29.93 in1013.5 mb - 0.00 in0.0 mm 0.00 in0.0 mm
08:00 AM 87.8°F31.0°C 55.9°F13.3°C 34% Calm Calm -- 29.93 in1013.5 mb - 0.00 in0.0 mm 0.00 in0.0 mm
07:55 AM 86.8°F30.4°C 55.9°F13.3°C 35% Calm Calm -- 29.93 in1013.5 mb - 0.00 in0.0 mm 0.00 in0.0 mm
07:50 AM 86.2°F30.1°C 56.1°F13.4°C 36% Calm Calm -- 29.93 in1013.5 mb - 0.00 in0.0 mm 0.00 in0.0 mm
07:45 AM 85.1°F29.5°C 55.9°F13.3°C 37% Calm Calm -- 29.93 in1013.5 mb - 0.00 in0.0 mm 0.00 in0.0 mm
07:40 AM 83.6°F28.7°C 55.3°F12.9°C 38% Calm Calm -- 29.93 in1013.5 mb - 0.00 in0.0 mm 0.00 in0.0 mm
07:35 AM 82.9°F28.3°C 55.4°F13.0°C 39% Calm Calm -- 29.93 in1013.5 mb - 0.00 in0.0 mm 0.00 in0.0 mm
07:30 AM 82.4°F28.0°C 55.0°F12.8°C 39% Calm Calm -- 29.93 in1013.5 mb - 0.00 in0.0 mm 0.00 in0.0 mm
07:25 AM 82.0°F27.8°C 53.9°F12.2°C 38% Calm Calm -- 29.93 in1013.5 mb - 0.00 in0.0 mm 0.00 in0.0 mm
07:20 AM 81.7°F27.6°C 53.6°F12.0°C 38% Calm Calm -- 29.93 in1013.5 mb - 0.00 in0.0 mm 0.00 in0.0 mm
07:15 AM 81.3°F27.4°C 53.3°F11.8°C 38% Calm Calm -- 29.93 in1013.5 mb - 0.00 in0.0 mm 0.00 in0.0 mm
07:10 AM 81.0°F27.2°C 53.0°F11.7°C 38% Calm Calm -- 29.93 in1013.5 mb - 0.00 in0.0 mm 0.00 in0.0 mm
07:05 AM 80.6°F27.0°C 52.6°F11.4°C 38% Calm Calm -- 29.93 in1013.5 mb - 0.00 in0.0 mm 0.00 in0.0 mm
07:00 AM 80.2°F26.8°C 52.3°F11.3°C 38% Calm Calm -- 29.93 in1013.5 mb - 0.00 in0.0 mm 0.00 in0.0 mm
06:55 AM 80.1°F26.7°C 52.2°F11.2°C 38% Calm Calm -- 29.93 in1013.5 mb - 0.00 in0.0 mm 0.00 in0.0 mm
06:50 AM 79.5°F26.4°C 51.7°F10.9°C 38% Calm Calm -- 29.92 in1013.2 mb - 0.00 in0.0 mm 0.00 in0.0 mm
06:45 AM 79.2°F26.2°C 51.4°F10.8°C 38% Calm Calm -- 29.92 in1013.2 mb - 0.00 in0.0 mm 0.00 in0.0 mm
06:40 AM 78.3°F25.7°C 50.6°F10.3°C 38% Calm Calm -- 29.92 in1013.2 mb - 0.00 in0.0 mm 0.00 in0.0 mm
06:35 AM 78.3°F25.7°C 50.6°F10.3°C 38% Calm Calm -- 29.92 in1013.2 mb - 0.00 in0.0 mm 0.00 in0.0 mm
06:30 AM 78.3°F25.7°C 50.6°F10.3°C 38% Calm Calm -- 29.92 in1013.2 mb - 0.00 in0.0 mm 0.00 in0.0 mm
06:25 AM 78.4°F25.8°C 50.7°F10.4°C 38% Calm Calm -- 29.92 in1013.2 mb - 0.00 in0.0 mm 0.00 in0.0 mm
06:20 AM 78.6°F25.9°C 50.1°F10.1°C 37% Calm Calm -- 29.92 in1013.2 mb - 0.00 in0.0 mm 0.00 in0.0 mm
06:15 AM 78.6°F25.9°C 50.1°F10.1°C 37% Calm Calm -- 29.91 in1012.9 mb - 0.00 in0.0 mm 0.00 in0.0 mm
06:10 AM 78.8°F26.0°C 50.3°F10.2°C 37% Calm Calm -- 29.91 in1012.9 mb - 0.00 in0.0 mm 0.00 in0.0 mm
06:05 AM 79.0°F26.1°C 50.5°F10.3°C 37% Calm Calm -- 29.91 in1012.9 mb - 0.00 in0.0 mm 0.00 in0.0 mm
06:00 AM 79.0°F26.1°C 50.5°F10.3°C 37% Calm Calm -- 29.91 in1012.9 mb - 0.00 in0.0 mm 0.00 in0.0 mm
05:55 AM 79.2°F26.2°C 50.7°F10.4°C 37% Calm Calm -- 29.91 in1012.9 mb - 0.00 in0.0 mm 0.00 in0.0 mm
05:50 AM 79.3°F26.3°C 50.8°F10.4°C 37% Calm Calm -- 29.91 in1012.9 mb - 0.00 in0.0 mm 0.00 in0.0 mm
05:45 AM 79.5°F26.4°C 50.9°F10.5°C 37% Calm Calm -- 29.91 in1012.9 mb - 0.00 in0.0 mm 0.00 in0.0 mm
05:40 AM 79.7°F26.5°C 50.4°F10.2°C 36% Calm Calm -- 29.90 in1012.5 mb - 0.00 in0.0 mm 0.00 in0.0 mm
05:35 AM 80.1°F26.7°C 50.7°F10.4°C 36% Calm Calm -- 29.90 in1012.5 mb - 0.00 in0.0 mm 0.00 in0.0 mm
05:30 AM 80.1°F26.7°C 50.7°F10.4°C 36% Calm Calm -- 29.90 in1012.5 mb - 0.00 in0.0 mm 0.00 in0.0 mm
05:25 AM 80.2°F26.8°C 50.8°F10.4°C 36% Calm Calm -- 29.90 in1012.5 mb - 0.00 in0.0 mm 0.00 in0.0 mm
05:20 AM 80.6°F27.0°C 51.2°F10.7°C 36% Calm Calm -- 29.90 in1012.5 mb - 0.00 in0.0 mm 0.00 in0.0 mm
05:15 AM 80.6°F27.0°C 51.2°F10.7°C 36% Calm Calm -- 29.90 in1012.5 mb - 0.00 in0.0 mm 0.00 in0.0 mm
05:10 AM 80.2°F26.8°C 50.8°F10.4°C 36% Calm Calm -- 29.90 in1012.5 mb - 0.00 in0.0 mm 0.00 in0.0 mm
05:05 AM 80.2°F26.8°C 50.8°F10.4°C 36% Calm Calm -- 29.89 in1012.2 mb - 0.00 in0.0 mm 0.00 in0.0 mm
05:00 AM 80.2°F26.8°C 50.8°F10.4°C 36% Calm Calm -- 29.89 in1012.2 mb - 0.00 in0.0 mm 0.00 in0.0 mm
04:55 AM 80.4°F26.9°C 51.0°F10.6°C 36% Calm Calm -- 29.89 in1012.2 mb - 0.00 in0.0 mm 0.00 in0.0 mm
04:50 AM 80.6°F27.0°C 51.2°F10.7°C 36% Calm Calm -- 29.89 in1012.2 mb - 0.00 in0.0 mm 0.00 in0.0 mm
04:45 AM 80.2°F26.8°C 51.6°F10.9°C 37% Calm Calm -- 29.89 in1012.2 mb - 0.00 in0.0 mm 0.00 in0.0 mm
04:40 AM 80.1°F26.7°C 51.5°F10.8°C 37% Calm Calm -- 29.89 in1012.2 mb - 0.00 in0.0 mm 0.00 in0.0 mm
04:35 AM 80.1°F26.7°C 51.5°F10.8°C 37% Calm Calm -- 29.89 in1012.2 mb - 0.00 in0.0 mm 0.00 in0.0 mm
04:30 AM 80.1°F26.7°C 51.5°F10.8°C 37% Calm Calm -- 29.89 in1012.2 mb - 0.00 in0.0 mm 0.00 in0.0 mm
04:25 AM 80.1°F26.7°C 51.5°F10.8°C 37% Calm Calm -- 29.89 in1012.2 mb - 0.00 in0.0 mm 0.00 in0.0 mm
04:20 AM 80.2°F26.8°C 51.6°F10.9°C 37% Calm Calm -- 29.89 in1012.2 mb - 0.00 in0.0 mm 0.00 in0.0 mm
04:15 AM 80.1°F26.7°C 51.5°F10.8°C 37% Calm Calm -- 29.89 in1012.2 mb - 0.00 in0.0 mm 0.00 in0.0 mm
04:10 AM 80.2°F26.8°C 51.6°F10.9°C 37% Calm Calm -- 29.89 in1012.2 mb - 0.00 in0.0 mm 0.00 in0.0 mm
04:05 AM 80.4°F26.9°C 51.7°F10.9°C 37% Calm Calm -- 29.88 in1011.9 mb - 0.00 in0.0 mm 0.00 in0.0 mm
04:00 AM 80.4°F26.9°C 51.7°F10.9°C 37% Calm Calm -- 29.88 in1011.9 mb - 0.00 in0.0 mm 0.00 in0.0 mm
03:55 AM 80.6°F27.0°C 51.9°F11.1°C 37% Calm Calm -- 29.88 in1011.9 mb - 0.00 in0.0 mm 0.00 in0.0 mm
03:50 AM 80.6°F27.0°C 51.9°F11.1°C 37% Calm Calm -- 29.89 in1012.2 mb - 0.00 in0.0 mm 0.00 in0.0 mm
03:45 AM 80.8°F27.1°C 52.1°F11.2°C 37% Calm Calm -- 29.89 in1012.2 mb - 0.00 in0.0 mm 0.00 in0.0 mm
03:40 AM 80.6°F27.0°C 51.9°F11.1°C 37% Calm Calm -- 29.88 in1011.9 mb - 0.00 in0.0 mm 0.00 in0.0 mm
03:35 AM 80.8°F27.1°C 52.1°F11.2°C 37% Calm Calm -- 29.88 in1011.9 mb - 0.00 in0.0 mm 0.00 in0.0 mm
03:30 AM 81.0°F27.2°C 52.3°F11.3°C 37% Calm Calm -- 29.88 in1011.9 mb - 0.00 in0.0 mm 0.00 in0.0 mm
03:25 AM 81.3°F27.4°C 52.5°F11.4°C 37% Calm Calm -- 29.88 in1011.9 mb - 0.00 in0.0 mm 0.00 in0.0 mm
03:20 AM 81.3°F27.4°C 52.5°F11.4°C 37% Calm Calm -- 29.88 in1011.9 mb - 0.00 in0.0 mm 0.00 in0.0 mm
03:15 AM 81.7°F27.6°C 52.9°F11.6°C 37% Calm Calm -- 29.88 in1011.9 mb - 0.00 in0.0 mm 0.00 in0.0 mm
03:10 AM 81.7°F27.6°C 52.1°F11.2°C 36% Calm Calm -- 29.88 in1011.9 mb - 0.00 in0.0 mm 0.00 in0.0 mm
03:05 AM 81.9°F27.7°C 52.3°F11.3°C 36% Calm Calm -- 29.88 in1011.9 mb - 0.00 in0.0 mm 0.00 in0.0 mm
03:00 AM 82.2°F27.9°C 52.6°F11.4°C 36% Calm Calm -- 29.88 in1011.9 mb - 0.00 in0.0 mm 0.00 in0.0 mm
02:55 AM 82.4°F28.0°C 52.8°F11.6°C 36% Calm Calm -- 29.88 in1011.9 mb - 0.00 in0.0 mm 0.00 in0.0 mm
02:50 AM 82.6°F28.1°C 52.9°F11.6°C 36% Calm Calm -- 29.88 in1011.9 mb - 0.00 in0.0 mm 0.00 in0.0 mm
02:45 AM 82.6°F28.1°C 52.9°F11.6°C 36% Calm Calm -- 29.88 in1011.9 mb - 0.00 in0.0 mm 0.00 in0.0 mm
02:40 AM 82.8°F28.2°C 52.3°F11.3°C 35% Calm Calm 2.3 mph3.7 kmh 29.88 in1011.9 mb - 0.00 in0.0 mm 0.00 in0.0 mm
02:35 AM 83.0°F28.3°C 52.5°F11.4°C 35% Calm Calm 1.2 mph1.9 kmh 29.88 in1011.9 mb - 0.00 in0.0 mm 0.00 in0.0 mm
02:30 AM 83.3°F28.5°C 52.8°F11.6°C 35% Calm Calm -- 29.88 in1011.9 mb - 0.00 in0.0 mm 0.00 in0.0 mm
02:25 AM 83.7°F28.7°C 53.1°F11.7°C 35% Calm Calm 1.2 mph1.9 kmh 29.88 in1011.9 mb - 0.00 in0.0 mm 0.00 in0.0 mm
02:20 AM 84.0°F28.9°C 53.4°F11.9°C 35% Calm Calm 1.2 mph1.9 kmh 29.88 in1011.9 mb - 0.00 in0.0 mm 0.00 in0.0 mm
02:15 AM 84.1°F28.9°C 53.5°F11.9°C 35% 2.3 mph S3.7 kmh S 2.3 mph3.7 kmh 29.88 in1011.9 mb - 0.00 in0.0 mm 0.00 in0.0 mm
02:10 AM 83.8°F28.8°C 53.2°F11.8°C 35% Calm Calm -- 29.88 in1011.9 mb - 0.00 in0.0 mm 0.00 in0.0 mm
02:05 AM 83.7°F28.7°C 53.1°F11.7°C 35% 1.2 mph S1.9 kmh S 1.2 mph1.9 kmh 29.88 in1011.9 mb - 0.00 in0.0 mm 0.00 in0.0 mm
02:00 AM 83.5°F28.6°C 53.0°F11.7°C 35% Calm Calm 1.2 mph1.9 kmh 29.88 in1011.9 mb - 0.00 in0.0 mm 0.00 in0.0 mm
01:55 AM 83.1°F28.4°C 52.6°F11.4°C 35% Calm Calm -- 29.88 in1011.9 mb - 0.00 in0.0 mm 0.00 in0.0 mm
01:50 AM 83.1°F28.4°C 52.6°F11.4°C 35% Calm Calm -- 29.88 in1011.9 mb - 0.00 in0.0 mm 0.00 in0.0 mm
01:45 AM 82.9°F28.3°C 52.4°F11.3°C 35% 1.2 mph E1.9 kmh E 1.2 mph1.9 kmh 29.88 in1011.9 mb - 0.00 in0.0 mm 0.00 in0.0 mm
01:40 AM 83.3°F28.5°C 52.8°F11.6°C 35% Calm Calm -- 29.88 in1011.9 mb - 0.00 in0.0 mm 0.00 in0.0 mm
01:35 AM 83.5°F28.6°C 52.9°F11.6°C 35% Calm Calm -- 29.88 in1011.9 mb - 0.00 in0.0 mm 0.00 in0.0 mm
01:30 AM 83.5°F28.6°C 52.9°F11.6°C 35% Calm Calm -- 29.89 in1012.2 mb - 0.00 in0.0 mm 0.00 in0.0 mm
01:25 AM 83.7°F28.7°C 53.1°F11.7°C 35% 1.2 mph NE1.9 kmh NE 1.2 mph1.9 kmh 29.89 in1012.2 mb - 0.00 in0.0 mm 0.00 in0.0 mm
01:20 AM 83.8°F28.8°C 53.2°F11.8°C 35% Calm Calm -- 29.89 in1012.2 mb - 0.00 in0.0 mm 0.00 in0.0 mm
01:15 AM 84.0°F28.9°C 53.4°F11.9°C 35% Calm Calm -- 29.89 in1012.2 mb - 0.00 in0.0 mm 0.00 in0.0 mm
01:10 AM 84.4°F29.1°C 53.0°F11.7°C 34% Calm Calm -- 29.89 in1012.2 mb - 0.00 in0.0 mm 0.00 in0.0 mm
01:05 AM 84.4°F29.1°C 53.8°F12.1°C 35% Calm Calm -- 29.89 in1012.2 mb - 0.00 in0.0 mm 0.00 in0.0 mm
01:00 AM 84.7°F29.3°C 53.2°F11.8°C 34% Calm Calm -- 29.89 in1012.2 mb - 0.00 in0.0 mm 0.00 in0.0 mm
12:55 AM 85.0°F29.4°C 53.5°F11.9°C 34% Calm Calm -- 29.88 in1011.9 mb - 0.00 in0.0 mm 0.00 in0.0 mm
12:50 AM 85.1°F29.5°C 53.6°F12.0°C 34% Calm Calm -- 29.88 in1011.9 mb - 0.00 in0.0 mm 0.00 in0.0 mm
12:45 AM 85.1°F29.5°C 53.6°F12.0°C 34% Calm Calm -- 29.88 in1011.9 mb - 0.00 in0.0 mm 0.00 in0.0 mm
12:40 AM 85.7°F29.8°C 54.1°F12.3°C 34% Calm Calm -- 29.88 in1011.9 mb - 0.00 in0.0 mm 0.00 in0.0 mm
12:35 AM 85.6°F29.8°C 54.0°F12.2°C 34% 2.3 mph S3.7 kmh S 2.3 mph3.7 kmh 29.88 in1011.9 mb - 0.00 in0.0 mm 0.00 in0.0 mm
12:30 AM 84.9°F29.4°C 54.2°F12.3°C 35% 2.3 mph SE3.7 kmh SE 2.3 mph3.7 kmh 29.88 in1011.9 mb - 0.00 in0.0 mm 0.00 in0.0 mm
12:25 AM 84.6°F29.2°C 54.7°F12.6°C 36% 1.2 mph SE1.9 kmh SE 1.2 mph1.9 kmh 29.88 in1011.9 mb - 0.00 in0.0 mm 0.00 in0.0 mm
12:20 AM 84.6°F29.2°C 54.7°F12.6°C 36% Calm Calm -- 29.88 in1011.9 mb - 0.00 in0.0 mm 0.00 in0.0 mm
12:15 AM 84.6°F29.2°C 54.7°F12.6°C 36% Calm Calm -- 29.88 in1011.9 mb - 0.00 in0.0 mm 0.00 in0.0 mm
12:10 AM 84.7°F29.3°C 54.8°F12.7°C 36% Calm Calm 1.2 mph1.9 kmh 29.88 in1011.9 mb - 0.00 in0.0 mm 0.00 in0.0 mm
12:05 AM 84.9°F29.4°C 55.0°F12.8°C 36% 2.3 mph SE3.7 kmh SE 2.3 mph3.7 kmh 29.87 in1011.5 mb - 0.00 in0.0 mm 0.00 in0.0 mm
12:00 AM 84.7°F29.3°C 54.8°F12.7°C 36% Calm Calm -- 29.87 in1011.5 mb - 0.00 in0.0 mm 0.00 in0.0 mm